Time;durP1;ratioP1;P1;durP2;ratioP2;P2;SDS_P1;SDS_P2;PMS_P1;PMS_P2;Temp;Humidity;BMP_temperature;BMP_pressure;BME280_temperature;BME280_humidity;BME280_pressure;Samples;Min_cycle;Max_cycle;Signal;HPM_P1;HPM_P2
2023/06/15 00:02:10;;;;;;;;;;;;;;;;;;5066303;28;4408;-58
2023/06/15 00:04:36;;;;;;;;;;;;;;;;;;5062791;28;4425;-59
2023/06/15 00:07:01;;;;;;;;;;;;;;;;;;5065723;28;4850;-59
2023/06/15 00:09:26;;;;;;;;;;;;;;;;;;5065658;28;4754;-60
2023/06/15 00:11:51;;;;;;;;;;;;;;;;;;5063863;28;4454;-60
2023/06/15 00:14:17;;;;;;;;;;;;;;;;;;5065475;28;1261;-60
2023/06/15 00:16:45;;;;;;;;;;;;;;;;;;5066235;28;5002;-59
2023/06/15 00:19:10;;;;;;;;;;;;;;;;;;5064550;28;4747;-60
2023/06/15 00:21:41;;;;;;;;;;;;;;;;;;5065363;28;5007;-59
2023/06/15 00:24:07;;;;;;;;;;;;;;;;;;5064627;28;5001;-60
2023/06/15 00:26:32;;;;;;;;;;;;;;;;;;5066641;28;1051;-60
2023/06/15 00:28:57;;;;;;;;;;;;;;;;;;5046757;28;4491;-60
2023/06/15 00:31:23;;;;;;;;;;;;;;;;;;5062733;28;4900;-60
2023/06/15 00:33:48;;;;;;;;;;;;;;;;;;5064605;28;5199;-60
2023/06/15 00:36:13;;;;;;;;;;;;;;;;;;5065118;28;5058;-60
2023/06/15 00:38:38;;;;;;;;;;;;;;;;;;5066129;28;1013;-60
2023/06/15 00:41:04;;;;;;;;;;;;;;;;;;5064920;28;5011;-60
2023/06/15 00:43:29;;;;;;;;;;;;;;;;;;5065092;28;4437;-60
2023/06/15 00:45:54;;;;;;;;;;;;;;;;;;5062651;28;5089;-59
2023/06/15 00:48:20;;;;;;;;;;;;;;;;;;5060282;28;4450;-58
2023/06/15 00:50:45;;;;;;;;;;;;;;;;;;5063224;28;1299;-58
2023/06/15 00:53:10;;;;;;;;;;;;;;;;;;5061660;28;4383;-58
2023/06/15 00:55:36;;;;;;;;;;;;;;;;;;5060341;28;4604;-58
2023/06/15 00:58:01;;;;;;;;;;;;;;;;;;5061466;28;4925;-59
2023/06/15 01:00:27;;;;;;;;;;;;;;;;;;5064106;28;5862;-58
2023/06/15 01:02:56;;;;;;;;;;;;;;;;;;5063703;28;4709;-59
2023/06/15 01:05:22;;;;;;;;;;;;;;;;;;5052453;28;1196;-59
2023/06/15 01:07:48;;;;;;;;;;;;;;;;;;5063324;28;4684;-59
2023/06/15 01:10:16;;;;;;;;;;;;;;;;;;5063402;28;4520;-58
2023/06/15 01:12:41;;;;;;;;;;;;;;;;;;5061049;28;4446;-59
2023/06/15 01:15:10;;;;;;;;;;;;;;;;;;5063315;28;5027;-58
2023/06/15 01:17:35;;;;;;;;;;;;;;;;;;5067139;28;4642;-60
2023/06/15 01:20:04;;;;;;;;;;;;;;;;;;5063776;28;4483;-59
2023/06/15 01:22:45;;;;;;;;;;;;;;;;;;5067751;28;4444;-59
2023/06/15 01:25:16;;;;;;;;;;;;;;;;;;5067057;28;4464;-59
2023/06/15 01:27:41;;;;;;;;;;;;;;;;;;5068923;28;5041;-59
2023/06/15 01:30:07;;;;;;;;;;;;;;;;;;5066992;28;4468;-58
2023/06/15 01:32:33;;;;;;;;;;;;;;;;;;5069147;28;1395;-58
2023/06/15 01:34:58;;;;;;;;;;;;;;;;;;5046824;28;4485;-58
2023/06/15 01:37:23;;;;;;;;;;;;;;;;;;5067646;28;4711;-59
2023/06/15 01:39:48;;;;;;;;;;;;;;;;;;5068011;28;4472;-59
2023/06/15 01:42:14;;;;;;;;;;;;;;;;;;5068082;28;4662;-58
2023/06/15 01:44:39;;;;;;;;;;;;;;;;;;5100129;28;2110;-60
2023/06/15 01:47:05;;;;;;;;;;;;;;;;;;5067670;28;4439;-59
2023/06/15 01:49:30;;;;;;;;;;;;;;;;;;5058980;28;5228;-59
2023/06/15 01:51:55;;;;;;;;;;;;;;;;;;5066748;28;4732;-59
2023/06/15 01:54:21;;;;;;;;;;;;;;;;;;5066669;28;4518;-59
2023/06/15 01:56:46;;;;;;;;;;;;;;;;;;5068240;28;4446;-59
2023/06/15 01:59:11;;;;;;;;;;;;;;;;;;5067897;28;1973;-59
2023/06/15 02:01:36;;;;;;;;;;;;;;;;;;5067875;28;4462;-60
2023/06/15 02:04:02;;;;;;;;;;;;;;;;;;5067322;28;4591;-60
2023/06/15 02:06:27;;;;;;;;;;;;;;;;;;5067493;28;4453;-58
2023/06/15 02:08:52;;;;;;;;;;;;;;;;;;5067171;28;4903;-59
2023/06/15 02:11:18;;;;;;;;;;;;;;;;;;5069331;28;1187;-59
2023/06/15 02:13:44;;;;;;;;;;;;;;;;;;5067509;28;5111;-59
2023/06/15 02:16:11;;;;;;;;;;;;;;;;;;5065313;28;4731;-58
2023/06/15 02:18:37;;;;;;;;;;;;;;;;;;5066855;28;4708;-59
2023/06/15 02:21:02;;;;;;;;;;;;;;;;;;5066973;28;4478;-58
2023/06/15 02:23:27;;;;;;;;;;;;;;;;;;5067714;28;1264;-58
2023/06/15 02:25:52;;;;;;;;;;;;;;;;;;5067235;28;4914;-59
2023/06/15 02:28:18;;;;;;;;;;;;;;;;;;5066190;28;4492;-60
2023/06/15 02:30:43;;;;;;;;;;;;;;;;;;5066900;28;5216;-60
2023/06/15 02:33:09;;;;;;;;;;;;;;;;;;5048690;28;4698;-59
2023/06/15 02:35:34;;;;;;;;;;;;;;;;;;5067377;28;1393;-60
2023/06/15 02:37:59;;;;;;;;;;;;;;;;;;5066967;28;5177;-59
2023/06/15 02:40:25;;;;;;;;;;;;;;;;;;5066861;28;4452;-57
2023/06/15 02:42:50;;;;;;;;;;;;;;;;;;5066445;28;5149;-59
2023/06/15 02:45:15;;;;;;;;;;;;;;;;;;5067707;28;5092;-60
2023/06/15 02:47:42;;;;;;;;;;;;;;;;;;5068213;28;1109;-59
2023/06/15 02:50:07;;;;;;;;;;;;;;;;;;5066839;28;4383;-58
2023/06/15 02:52:33;;;;;;;;;;;;;;;;;;5067560;28;4449;-59
2023/06/15 02:54:58;;;;;;;;;;;;;;;;;;5068026;28;4465;-59
2023/06/15 02:57:24;;;;;;;;;;;;;;;;;;5066910;28;5095;-59
2023/06/15 02:59:49;;;;;;;;;;;;;;;;;;5066433;28;4651;-60
2023/06/15 03:02:14;;;;;;;;;;;;;;;;;;5067128;28;1493;-59
2023/06/15 03:04:47;;;;;;;;;;;;;;;;;;5066454;28;4999;-60
2023/06/15 03:07:20;;;;;;;;;;;;;;;;;;5066821;28;4647;-59
2023/06/15 03:09:49;;;;;;;;;;;;;;;;;;5066213;28;4624;-59
2023/06/15 03:12:21;;;;;;;;;;;;;;;;;;5045023;28;4478;-59
2023/06/15 03:14:53;;;;;;;;;;;;;;;;;;5063691;28;5053;-59
2023/06/15 03:17:21;;;;;;;;;;;;;;;;;;5065418;28;1257;-59
2023/06/15 03:19:47;;;;;;;;;;;;;;;;;;5064504;28;5045;-60
2023/06/15 03:22:13;;;;;;;;;;;;;;;;;;5066292;28;4961;-59
2023/06/15 03:24:39;;;;;;;;;;;;;;;;;;5080017;28;4619;-59
2023/06/15 03:27:06;;;;;;;;;;;;;;;;;;5066075;28;4829;-59
2023/06/15 03:29:36;;;;;;;;;;;;;;;;;;5066190;28;1413;-59
2023/06/15 03:32:03;;;;;;;;;;;;;;;;;;5065964;28;4403;-61
2023/06/15 03:34:28;;;;;;;;;;;;;;;;;;5066334;28;4476;-59
2023/06/15 03:36:53;;;;;;;;;;;;;;;;;;5066054;28;4470;-58
2023/06/15 03:39:19;;;;;;;;;;;;;;;;;;5047372;28;4639;-58
2023/06/15 03:41:44;;;;;;;;;;;;;;;;;;5066748;28;1168;-60
2023/06/15 03:44:10;;;;;;;;;;;;;;;;;;5065659;28;4488;-59
2023/06/15 03:46:35;;;;;;;;;;;;;;;;;;5064307;28;4546;-59
2023/06/15 03:49:00;;;;;;;;;;;;;;;;;;5065695;28;4608;-58
2023/06/15 03:51:27;;;;;;;;;;;;;;;;;;5065567;28;5035;-60
2023/06/15 03:53:52;;;;;;;;;;;;;;;;;;5065533;28;4836;-60
2023/06/15 03:56:17;;;;;;;;;;;;;;;;;;5066076;28;1395;-59
2023/06/15 03:58:42;;;;;;;;;;;;;;;;;;5065861;28;4429;-58
2023/06/15 04:01:08;;;;;;;;;;;;;;;;;;5064891;28;5385;-59
2023/06/15 04:03:36;;;;;;;;;;;;;;;;;;5067560;28;4600;-59
2023/06/15 04:06:04;;;;;;;;;;;;;;;;;;5065086;28;4639;-59
2023/06/15 04:08:29;;;;;;;;;;;;;;;;;;5061615;28;1520;-61
2023/06/15 04:10:56;;;;;;;;;;;;;;;;;;5063054;28;4426;-60
2023/06/15 04:13:22;;;;;;;;;;;;;;;;;;5063641;28;4614;-58
2023/06/15 04:15:47;;;;;;;;;;;;;;;;;;5064813;28;4513;-59
2023/06/15 04:18:12;;;;;;;;;;;;;;;;;;5063281;28;4615;-59
2023/06/15 04:20:38;;;;;;;;;;;;;;;;;;5065810;28;1973;-59
2023/06/15 04:23:03;;;;;;;;;;;;;;;;;;5065075;28;4546;-59
2023/06/15 04:25:28;;;;;;;;;;;;;;;;;;5065361;28;5141;-59
2023/06/15 04:27:54;;;;;;;;;;;;;;;;;;5065800;28;4464;-60
2023/06/15 04:30:24;;;;;;;;;;;;;;;;;;5052004;28;4651;-60
2023/06/15 04:32:57;;;;;;;;;;;;;;;;;;5087557;28;4537;-59
2023/06/15 04:35:24;;;;;;;;;;;;;;;;;;5066035;28;2014;-59
2023/06/15 04:37:50;;;;;;;;;;;;;;;;;;5065574;28;5208;-59
2023/06/15 04:40:20;;;;;;;;;;;;;;;;;;5065258;28;4995;-60
2023/06/15 04:42:45;;;;;;;;;;;;;;;;;;5059835;28;4473;-59
2023/06/15 04:45:10;;;;;;;;;;;;;;;;;;5062458;28;4716;-59
2023/06/15 04:47:35;;;;;;;;;;;;;;;;;;5066318;28;1374;-58
2023/06/15 04:50:03;;;;;;;;;;;;;;;;;;5065349;28;4570;-58
2023/06/15 04:52:28;;;;;;;;;;;;;;;;;;5057567;28;4424;-58
2023/06/15 04:54:53;;;;;;;;;;;;;;;;;;5067376;28;4939;-59
2023/06/15 04:57:19;;;;;;;;;;;;;;;;;;5068695;28;4629;-58
2023/06/15 04:59:44;;;;;;;;;;;;;;;;;;5067546;28;1906;-57
2023/06/15 05:02:09;;;;;;;;;;;;;;;;;;5069104;28;4538;-58
2023/06/15 05:04:35;;;;;;;;;;;;;;;;;;5068949;28;4607;-59
2023/06/15 05:07:01;;;;;;;;;;;;;;;;;;5068598;28;5552;-60
2023/06/15 05:09:26;;;;;;;;;;;;;;;;;;5068761;28;4444;-59
2023/06/15 05:11:51;;;;;;;;;;;;;;;;;;5067182;28;4885;-58
2023/06/15 05:14:16;;;;;;;;;;;;;;;;;;5069476;28;1359;-60
2023/06/15 05:16:42;;;;;;;;;;;;;;;;;;5067774;28;5411;-60
2023/06/15 05:19:07;;;;;;;;;;;;;;;;;;5065281;28;4733;-60
2023/06/15 05:21:32;;;;;;;;;;;;;;;;;;5068296;28;4669;-58
2023/06/15 05:23:57;;;;;;;;;;;;;;;;;;5068331;28;4984;-59
2023/06/15 05:26:23;;;;;;;;;;;;;;;;;;5067735;28;1413;-59
2023/06/15 05:28:48;;;;;;;;;;;;;;;;;;5068416;28;5206;-59
2023/06/15 05:31:13;;;;;;;;;;;;;;;;;;5067878;28;5108;-58
2023/06/15 05:33:38;;;;;;;;;;;;;;;;;;5066559;28;4442;-59
2023/06/15 05:36:04;;;;;;;;;;;;;;;;;;5067744;28;4522;-58
2023/06/15 05:38:29;;;;;;;;;;;;;;;;;;5068025;28;1039;-59
2023/06/15 05:40:55;;;;;;;;;;;;;;;;;;5067797;28;4462;-59
2023/06/15 05:43:20;;;;;;;;;;;;;;;;;;5067578;28;4738;-59
2023/06/15 05:45:47;;;;;;;;;;;;;;;;;;5063794;28;5790;-59
2023/06/15 05:48:12;;;;;;;;;;;;;;;;;;5068184;28;4511;-60
2023/06/15 05:50:38;;;;;;;;;;;;;;;;;;5068428;28;1379;-60
2023/06/15 05:53:03;;;;;;;;;;;;;;;;;;5068427;28;5037;-59
2023/06/15 05:55:29;;;;;;;;;;;;;;;;;;5067021;28;5148;-59
2023/06/15 05:57:55;;;;;;;;;;;;;;;;;;5068479;28;4684;-58
2023/06/15 06:00:22;;;;;;;;;;;;;;;;;;5067599;28;5060;-59
2023/06/15 06:02:47;;;;;;;;;;;;;;;;;;5066165;28;1166;-59
2023/06/15 06:05:12;;;;;;;;;;;;;;;;;;5066417;28;5098;-59
2023/06/15 06:07:38;;;;;;;;;;;;;;;;;;5067792;28;4692;-59
2023/06/15 06:10:03;;;;;;;;;;;;;;;;;;5067187;28;4854;-60
2023/06/15 06:12:28;;;;;;;;;;;;;;;;;;5065878;28;4440;-58
2023/06/15 06:14:54;;;;;;;;;;;;;;;;;;5066203;28;4508;-59
2023/06/15 06:17:19;;;;;;;;;;;;;;;;;;5068578;28;1317;-58
2023/06/15 06:19:45;;;;;;;;;;;;;;;;;;5065438;28;4640;-58
2023/06/15 06:22:10;;;;;;;;;;;;;;;;;;5067356;28;4643;-59
2023/06/15 06:24:36;;;;;;;;;;;;;;;;;;5067775;28;5096;-58
2023/06/15 06:27:01;;;;;;;;;;;;;;;;;;5066423;28;4639;-59
2023/06/15 06:29:26;;;;;;;;;;;;;;;;;;5067729;28;1598;-58
2023/06/15 06:31:51;;;;;;;;;;;;;;;;;;5067580;28;4412;-60
2023/06/15 06:34:17;;;;;;;;;;;;;;;;;;5067288;28;4561;-59
2023/06/15 06:36:42;;;;;;;;;;;;;;;;;;5066365;28;4509;-59
2023/06/15 06:39:07;;;;;;;;;;;;;;;;;;5067521;28;5518;-59
2023/06/15 06:41:32;;;;;;;;;;;;;;;;;;5068102;28;3537;-59
2023/06/15 06:43:58;;;;;;;;;;;;;;;;;;5067407;28;4625;-59
2023/06/15 06:46:23;;;;;;;;;;;;;;;;;;5061099;28;5183;-58
2023/06/15 06:48:49;;;;;;;;;;;;;;;;;;5066545;28;5029;-59
2023/06/15 06:51:15;;;;;;;;;;;;;;;;;;5067684;28;4894;-58
2023/06/15 06:53:40;;;;;;;;;;;;;;;;;;5065705;28;1529;-59
2023/06/15 06:56:05;;;;;;;;;;;;;;;;;;5066282;28;4947;-58
2023/06/15 06:58:31;;;;;;;;;;;;;;;;;;5065675;28;4457;-60
2023/06/15 07:00:56;;;;;;;;;;;;;;;;;;5064303;28;5037;-59
2023/06/15 07:03:21;;;;;;;;;;;;;;;;;;5066240;28;4424;-58
2023/06/15 07:05:47;;;;;;;;;;;;;;;;;;5067210;28;1405;-58
2023/06/15 07:08:12;;;;;;;;;;;;;;;;;;5061343;28;5022;-58
2023/06/15 07:10:38;;;;;;;;;;;;;;;;;;5047550;28;5043;-60
2023/06/15 07:13:03;;;;;;;;;;;;;;;;;;5061217;28;4684;-57
2023/06/15 07:15:31;;;;;;;;;;;;;;;;;;5057955;28;5518;-57
2023/06/15 07:17:56;;;;;;;;;;;;;;;;;;5059114;28;5211;-56
2023/06/15 07:20:21;;;;;;;;;;;;;;;;;;5060722;28;3315;-66
2023/06/15 07:22:47;;;;;;;;;;;;;;;;;;5065008;28;4924;-67
2023/06/15 07:25:12;;;;;;;;;;;;;;;;;;5065197;28;4838;-67
2023/06/15 07:27:37;;;;;;;;;;;;;;;;;;5061919;28;4508;-67
2023/06/15 07:30:03;;;;;;;;;;;;;;;;;;5062466;28;4516;-66
2023/06/15 07:32:29;;;;;;;;;;;;;;;;;;5066288;28;3369;-65
2023/06/15 07:34:54;;;;;;;;;;;;;;;;;;5058323;28;5081;-56
2023/06/15 07:37:20;;;;;;;;;;;;;;;;;;5053073;28;5006;-59
2023/06/15 07:39:45;;;;;;;;;;;;;;;;;;5061596;28;4795;-58
2023/06/15 07:42:10;;;;;;;;;;;;;;;;;;5061597;28;5216;-59
2023/06/15 07:44:36;;;;;;;;;;;;;;;;;;5061749;28;3430;-58
2023/06/15 07:47:01;;;;;;;;;;;;;;;;;;5063613;28;4443;-55
2023/06/15 07:49:26;;;;;;;;;;;;;;;;;;5061126;28;4507;-54
2023/06/15 07:51:51;;;;;;;;;;;;;;;;;;5061536;28;4960;-55
2023/06/15 07:54:17;;;;;;;;;;;;;;;;;;5060784;28;5138;-52
2023/06/15 07:58:03;;;;;;;;;;;;;;;;;;5070503;27;4770;-67
2023/06/15 08:00:30;;;;;;;;;;;;;;;;;;5049817;28;4499;-68
2023/06/15 08:02:55;;;;;;;;;;;;;;;;;;5058176;28;4618;-68
2023/06/15 08:05:20;;;;;;;;;;;;;;;;;;5048036;28;3404;-69
2023/06/15 08:07:46;;;;;;;;;;;;;;;;;;5051645;28;4944;-69
2023/06/15 08:10:11;;;;;;;;;;;;;;;;;;5057159;28;5137;-70
2023/06/15 08:12:36;;;;;;;;;;;;;;;;;;5040240;28;4575;-68
2023/06/15 08:15:02;;;;;;;;;;;;;;;;;;5056776;28;4983;-65
2023/06/15 08:17:27;;;;;;;;;;;;;;;;;;5056853;28;1969;-67
2023/06/15 08:19:52;;;;;;;;;;;;;;;;;;5051779;28;4638;-68
2023/06/15 08:22:18;;;;;;;;;;;;;;;;;;5054433;28;4713;-68
2023/06/15 08:24:43;;;;;;;;;;;;;;;;;;5053384;28;4461;-65
2023/06/15 08:27:10;;;;;;;;;;;;;;;;;;5060893;28;4603;-64
2023/06/15 08:29:36;;;;;;;;;;;;;;;;;;5060606;28;1529;-63
2023/06/15 08:32:02;;;;;;;;;;;;;;;;;;5053073;28;4974;-65
2023/06/15 08:34:27;;;;;;;;;;;;;;;;;;5059563;28;4467;-64
2023/06/15 08:36:52;;;;;;;;;;;;;;;;;;5058171;28;4457;-68
2023/06/15 08:39:17;;;;;;;;;;;;;;;;;;5053417;28;5126;-64
2023/06/15 08:41:44;;;;;;;;;;;;;;;;;;5057258;28;1432;-64
2023/06/15 08:44:10;;;;;;;;;;;;;;;;;;5055621;28;4616;-67
2023/06/15 08:46:35;;;;;;;;;;;;;;;;;;5051579;28;4475;-61
2023/06/15 08:49:00;;;;;;;;;;;;;;;;;;5054877;28;4646;-59
2023/06/15 08:51:26;;;;;;;;;;;;;;;;;;5056587;28;4761;-59
2023/06/15 08:53:52;;;;;;;;;;;;;;;;;;5056345;28;4493;-60
2023/06/15 08:56:17;;;;;;;;;;;;;;;;;;5058231;28;2222;-61
2023/06/15 08:58:49;;;;;;;;;;;;;;;;;;5053460;28;5154;-59
2023/06/15 09:01:16;;;;;;;;;;;;;;;;;;5070326;28;4717;-60
2023/06/15 09:03:41;;;;;;;;;;;;;;;;;;5038810;28;4470;-61
2023/06/15 09:06:06;;;;;;;;;;;;;;;;;;5055921;28;4475;-59
2023/06/15 09:08:32;;;;;;;;;;;;;;;;;;5045970;28;1682;-59
2023/06/15 09:11:06;;;;;;;;;;;;;;;;;;5037305;28;4821;-58
2023/06/15 09:13:32;;;;;;;;;;;;;;;;;;5033952;28;5017;-64
2023/06/15 09:15:58;;;;;;;;;;;;;;;;;;5036490;28;5124;-50
2023/06/15 09:18:23;;;;;;;;;;;;;;;;;;5068574;28;4635;-58
2023/06/15 09:20:48;;;;;;;;;;;;;;;;;;5031405;28;4536;-58
2023/06/15 09:23:14;;;;;;;;;;;;;;;;;;5033731;28;3612;-55
2023/06/15 09:25:41;;;;;;;;;;;;;;;;;;5021966;28;4531;-58
2023/06/15 09:28:06;;;;;;;;;;;;;;;;;;5029772;28;4832;-59
2023/06/15 09:30:33;;;;;;;;;;;;;;;;;;5036167;28;4754;-58
2023/06/15 09:33:18;;;;;;;;;;;;;;;;;;5037100;28;4506;-58
2023/06/15 09:35:57;;;;;;;;;;;;;;;;;;5030849;28;3562;-57
2023/06/15 09:38:22;;;;;;;;;;;;;;;;;;5046050;28;4510;-58
2023/06/15 09:40:47;;;;;;;;;;;;;;;;;;5034310;28;5006;-59
2023/06/15 09:43:14;;;;;;;;;;;;;;;;;;5033067;28;4488;-59
2023/06/15 09:45:54;;;;;;;;;;;;;;;;;;5034374;28;4583;-62
2023/06/15 09:48:20;;;;;;;;;;;;;;;;;;5042487;28;5020;-63
2023/06/15 09:50:51;;;;;;;;;;;;;;;;;;5023005;28;3433;-64
2023/06/15 09:53:17;;;;;;;;;;;;;;;;;;5029965;28;4820;-62
2023/06/15 09:55:46;;;;;;;;;;;;;;;;;;5034702;28;4444;-61
2023/06/15 09:58:11;;;;;;;;;;;;;;;;;;5031309;28;5047;-63
2023/06/15 10:00:36;;;;;;;;;;;;;;;;;;5023968;28;4820;-59
2023/06/15 10:03:03;;;;;;;;;;;;;;;;;;5052082;28;5294;-59
2023/06/15 10:05:31;;;;;;;;;;;;;;;;;;5048674;28;3456;-60
2023/06/15 10:07:57;;;;;;;;;;;;;;;;;;5039062;28;4743;-61
2023/06/15 10:10:22;;;;;;;;;;;;;;;;;;5036197;28;4688;-58
2023/06/15 10:12:51;;;;;;;;;;;;;;;;;;5028614;28;4966;-62
2023/06/15 10:15:18;;;;;;;;;;;;;;;;;;5034643;28;4471;-58
2023/06/15 10:17:46;;;;;;;;;;;;;;;;;;5033538;28;4666;-63
2023/06/15 10:20:16;;;;;;;;;;;;;;;;;;5033211;28;5294;-62
2023/06/15 10:23:04;;;;;;;;;;;;;;;;;;5032579;28;4930;-59
2023/06/15 10:25:30;;;;;;;;;;;;;;;;;;5030228;28;5058;-59
2023/06/15 10:27:55;;;;;;;;;;;;;;;;;;5044409;28;4954;-60
2023/06/15 10:30:25;;;;;;;;;;;;;;;;;;5030411;28;4527;-58
2023/06/15 10:33:06;;;;;;;;;;;;;;;;;;5039528;28;4652;-58
2023/06/15 10:35:45;;;;;;;;;;;;;;;;;;5051038;28;3401;-57
2023/06/15 10:38:16;;;;;;;;;;;;;;;;;;5060463;28;5693;-57
2023/06/15 10:40:48;;;;;;;;;;;;;;;;;;5029496;28;4532;-58
2023/06/15 10:43:20;;;;;;;;;;;;;;;;;;5031540;28;4699;-63
2023/06/15 10:45:46;;;;;;;;;;;;;;;;;;5025503;28;4500;-62
2023/06/15 10:48:19;;;;;;;;;;;;;;;;;;5034305;28;4702;-61
2023/06/15 10:50:48;;;;;;;;;;;;;;;;;;5030311;28;3615;-61
2023/06/15 10:53:23;;;;;;;;;;;;;;;;;;5036058;28;4971;-61
2023/06/15 10:55:51;;;;;;;;;;;;;;;;;;5033729;28;4708;-61
2023/06/15 10:58:16;;;;;;;;;;;;;;;;;;5031670;28;4450;-58
2023/06/15 11:00:42;;;;;;;;;;;;;;;;;;5033169;28;5099;-62
2023/06/15 11:03:22;;;;;;;;;;;;;;;;;;5036123;28;4501;-61
2023/06/15 11:05:47;;;;;;;;;;;;;;;;;;5038155;28;3531;-59
2023/06/15 11:08:17;;;;;;;;;;;;;;;;;;5050557;28;4443;-59
2023/06/15 11:10:42;;;;;;;;;;;;;;;;;;5035715;28;4775;-58
2023/06/15 11:13:08;;;;;;;;;;;;;;;;;;5036235;28;4999;-57
2023/06/15 11:15:35;;;;;;;;;;;;;;;;;;5036472;28;4607;-57
2023/06/15 11:18:03;;;;;;;;;;;;;;;;;;5038130;28;4620;-57
2023/06/15 11:20:38;;;;;;;;;;;;;;;;;;5036384;28;3389;-58
2023/06/15 11:23:09;;;;;;;;;;;;;;;;;;5032602;28;4973;-58
2023/06/15 11:25:36;;;;;;;;;;;;;;;;;;5035320;28;4520;-58
2023/06/15 11:28:02;;;;;;;;;;;;;;;;;;5037204;28;4501;-60
2023/06/15 11:30:28;;;;;;;;;;;;;;;;;;5039570;28;5119;-58
2023/06/15 11:32:53;;;;;;;;;;;;;;;;;;5054205;28;4528;-58
2023/06/15 11:35:19;;;;;;;;;;;;;;;;;;5031161;28;3627;-58
2023/06/15 11:37:44;;;;;;;;;;;;;;;;;;5032293;28;4846;-61
2023/06/15 11:40:10;;;;;;;;;;;;;;;;;;5035417;28;4922;-61
2023/06/15 11:42:35;;;;;;;;;;;;;;;;;;5037675;28;4484;-59
2023/06/15 11:45:01;;;;;;;;;;;;;;;;;;5033256;28;5036;-58
2023/06/15 11:47:26;;;;;;;;;;;;;;;;;;5038859;28;3413;-59
2023/06/15 11:49:51;;;;;;;;;;;;;;;;;;5035339;28;4798;-59
2023/06/15 11:52:16;;;;;;;;;;;;;;;;;;5029241;28;4621;-57
2023/06/15 11:54:43;;;;;;;;;;;;;;;;;;5033035;28;5463;-58
2023/06/15 11:57:08;;;;;;;;;;;;;;;;;;5034590;28;4908;-58
2023/06/15 11:59:35;;;;;;;;;;;;;;;;;;5034661;28;1302;-58
2023/06/15 12:02:02;;;;;;;;;;;;;;;;;;5032373;28;4927;-59
2023/06/15 12:04:30;;;;;;;;;;;;;;;;;;5028202;28;4488;-59
2023/06/15 12:06:55;;;;;;;;;;;;;;;;;;5033885;28;4575;-59
2023/06/15 12:09:21;;;;;;;;;;;;;;;;;;5034184;28;4521;-60
2023/06/15 12:11:46;;;;;;;;;;;;;;;;;;5029436;28;3393;-60
2023/06/15 12:14:12;;;;;;;;;;;;;;;;;;5043144;28;4566;-58
2023/06/15 12:16:37;;;;;;;;;;;;;;;;;;5032799;28;4838;-59
2023/06/15 12:19:03;;;;;;;;;;;;;;;;;;5037196;28;5076;-59
2023/06/15 12:21:32;;;;;;;;;;;;;;;;;;5037791;28;4479;-59
2023/06/15 12:23:58;;;;;;;;;;;;;;;;;;5032267;28;4549;-58
2023/06/15 12:26:29;;;;;;;;;;;;;;;;;;5067746;28;3209;-59
2023/06/15 12:28:55;;;;;;;;;;;;;;;;;;5033593;28;4592;-60
2023/06/15 12:31:21;;;;;;;;;;;;;;;;;;5043080;28;4472;-60
2023/06/15 12:33:49;;;;;;;;;;;;;;;;;;5030780;28;4529;-61
2023/06/15 12:36:14;;;;;;;;;;;;;;;;;;5066566;28;4494;-62
2023/06/15 12:38:42;;;;;;;;;;;;;;;;;;5036309;28;3476;-60
2023/06/15 12:41:11;;;;;;;;;;;;;;;;;;5033065;28;4604;-60
2023/06/15 12:43:36;;;;;;;;;;;;;;;;;;5039237;28;4680;-60
2023/06/15 12:46:01;;;;;;;;;;;;;;;;;;5033467;28;5403;-60
2023/06/15 12:48:27;;;;;;;;;;;;;;;;;;5039195;28;4650;-59
2023/06/15 12:50:52;;;;;;;;;;;;;;;;;;5040933;28;4494;-59
2023/06/15 12:53:18;;;;;;;;;;;;;;;;;;5038193;28;3777;-60
2023/06/15 12:55:44;;;;;;;;;;;;;;;;;;5046222;28;5011;-60
2023/06/15 12:58:09;;;;;;;;;;;;;;;;;;5043857;28;4563;-62
2023/06/15 13:00:35;;;;;;;;;;;;;;;;;;5039460;28;5233;-62
2023/06/15 13:03:00;;;;;;;;;;;;;;;;;;5040946;28;4648;-62
2023/06/15 13:05:26;;;;;;;;;;;;;;;;;;5043799;28;1034;-58
2023/06/15 13:07:51;;;;;;;;;;;;;;;;;;5040912;28;4613;-62
2023/06/15 13:10:16;;;;;;;;;;;;;;;;;;5059753;28;5214;-61
2023/06/15 13:12:43;;;;;;;;;;;;;;;;;;5043878;28;4657;-60
2023/06/15 13:15:09;;;;;;;;;;;;;;;;;;5043411;28;4477;-60
2023/06/15 13:17:37;;;;;;;;;;;;;;;;;;5037446;28;4492;-60
2023/06/15 13:20:04;;;;;;;;;;;;;;;;;;5040541;28;5327;-62
2023/06/15 13:22:29;;;;;;;;;;;;;;;;;;5039892;28;4505;-62
2023/06/15 13:24:54;;;;;;;;;;;;;;;;;;5041041;28;4608;-62
2023/06/15 13:27:20;;;;;;;;;;;;;;;;;;5048175;28;4480;-61
2023/06/15 13:29:45;;;;;;;;;;;;;;;;;;5042461;28;1463;-61
2023/06/15 13:32:10;;;;;;;;;;;;;;;;;;5039292;28;4491;-62
2023/06/15 13:34:37;;;;;;;;;;;;;;;;;;5040612;28;4529;-63
2023/06/15 13:37:02;;;;;;;;;;;;;;;;;;5042800;28;5042;-61
2023/06/15 13:39:28;;;;;;;;;;;;;;;;;;5033107;28;4522;-62
2023/06/15 13:41:53;;;;;;;;;;;;;;;;;;5036704;28;4683;-62
2023/06/15 13:44:19;;;;;;;;;;;;;;;;;;5043930;28;3341;-63
2023/06/15 13:46:44;;;;;;;;;;;;;;;;;;5036934;28;4535;-63
2023/06/15 13:49:10;;;;;;;;;;;;;;;;;;5037592;28;5791;-63
2023/06/15 13:51:36;;;;;;;;;;;;;;;;;;5041423;28;4494;-63
2023/06/15 13:54:01;;;;;;;;;;;;;;;;;;5038726;28;4662;-64
2023/06/15 13:56:26;;;;;;;;;;;;;;;;;;5036360;28;3288;-62
2023/06/15 13:58:52;;;;;;;;;;;;;;;;;;5035703;28;5072;-63
2023/06/15 14:01:19;;;;;;;;;;;;;;;;;;5032934;28;4746;-62
2023/06/15 14:03:45;;;;;;;;;;;;;;;;;;5039456;28;4542;-62
2023/06/15 14:06:10;;;;;;;;;;;;;;;;;;5038093;28;4525;-61
2023/06/15 14:08:35;;;;;;;;;;;;;;;;;;5041977;28;3224;-61
2023/06/15 14:11:00;;;;;;;;;;;;;;;;;;5035020;28;4473;-66
2023/06/15 14:13:26;;;;;;;;;;;;;;;;;;5043592;28;4484;-63
2023/06/15 14:15:52;;;;;;;;;;;;;;;;;;5034677;28;4670;-62
2023/06/15 14:18:17;;;;;;;;;;;;;;;;;;5037572;28;5004;-59
2023/06/15 14:20:43;;;;;;;;;;;;;;;;;;5048486;28;3355;-62
2023/06/15 14:23:09;;;;;;;;;;;;;;;;;;5035731;28;4687;-62
2023/06/15 14:25:34;;;;;;;;;;;;;;;;;;5038887;28;4901;-62
2023/06/15 14:27:59;;;;;;;;;;;;;;;;;;5036553;28;5091;-65
2023/06/15 14:30:25;;;;;;;;;;;;;;;;;;5038970;28;4810;-61
2023/06/15 14:32:50;;;;;;;;;;;;;;;;;;5064887;28;5018;-63
2023/06/15 14:35:15;;;;;;;;;;;;;;;;;;5041719;28;3440;-61
2023/06/15 14:37:41;;;;;;;;;;;;;;;;;;5034704;28;4445;-61
2023/06/15 14:40:06;;;;;;;;;;;;;;;;;;5037571;28;5046;-63
2023/06/15 14:42:32;;;;;;;;;;;;;;;;;;5039715;28;4922;-62
2023/06/15 14:44:57;;;;;;;;;;;;;;;;;;5035971;28;4680;-61
2023/06/15 14:47:22;;;;;;;;;;;;;;;;;;5037099;28;1345;-61
2023/06/15 14:49:48;;;;;;;;;;;;;;;;;;5040466;28;4876;-68
2023/06/15 14:52:13;;;;;;;;;;;;;;;;;;5028868;28;4779;-62
2023/06/15 14:54:41;;;;;;;;;;;;;;;;;;5033248;28;4891;-63
2023/06/15 14:57:11;;;;;;;;;;;;;;;;;;5038909;28;4522;-62
2023/06/15 14:59:36;;;;;;;;;;;;;;;;;;5039538;28;3475;-62
2023/06/15 15:02:02;;;;;;;;;;;;;;;;;;5035154;28;4428;-61
2023/06/15 15:04:27;;;;;;;;;;;;;;;;;;5040140;28;4460;-66
2023/06/15 15:06:53;;;;;;;;;;;;;;;;;;5032551;28;4547;-63
2023/06/15 15:09:19;;;;;;;;;;;;;;;;;;5031860;28;4880;-66
2023/06/15 15:11:44;;;;;;;;;;;;;;;;;;5033927;28;3568;-68
2023/06/15 15:14:10;;;;;;;;;;;;;;;;;;5047795;28;4675;-64
2023/06/15 15:16:35;;;;;;;;;;;;;;;;;;5039353;28;4589;-64
2023/06/15 15:19:00;;;;;;;;;;;;;;;;;;5038592;28;4790;-70
2023/06/15 15:21:26;;;;;;;;;;;;;;;;;;5041211;28;4761;-69
2023/06/15 15:23:51;;;;;;;;;;;;;;;;;;5038783;28;4645;-72
2023/06/15 15:26:17;;;;;;;;;;;;;;;;;;5080095;28;3056;-73
2023/06/15 15:28:42;;;;;;;;;;;;;;;;;;5047256;28;4628;-69
2023/06/15 15:31:08;;;;;;;;;;;;;;;;;;5062537;28;4518;-73
2023/06/15 15:33:33;;;;;;;;;;;;;;;;;;5045259;28;4605;-73
2023/06/15 15:35:58;;;;;;;;;;;;;;;;;;5039935;28;4499;-73
2023/06/15 15:38:23;;;;;;;;;;;;;;;;;;5046163;28;3056;-73
2023/06/15 15:40:49;;;;;;;;;;;;;;;;;;5041010;28;4441;-74
2023/06/15 15:43:14;;;;;;;;;;;;;;;;;;5052390;28;4432;-73
2023/06/15 15:45:40;;;;;;;;;;;;;;;;;;5047255;28;4482;-72
2023/06/15 15:48:05;;;;;;;;;;;;;;;;;;5042890;28;4587;-74
2023/06/15 15:50:30;;;;;;;;;;;;;;;;;;5039298;28;2361;-73
2023/06/15 15:52:56;;;;;;;;;;;;;;;;;;5040318;28;4628;-71
2023/06/15 15:55:21;;;;;;;;;;;;;;;;;;5047034;28;4743;-68
2023/06/15 15:57:46;;;;;;;;;;;;;;;;;;5041688;28;5159;-64
2023/06/15 16:00:12;;;;;;;;;;;;;;;;;;5039995;28;5096;-64
2023/06/15 16:02:38;;;;;;;;;;;;;;;;;;5033838;28;2966;-64
2023/06/15 16:05:06;;;;;;;;;;;;;;;;;;5034497;28;4690;-64
2023/06/15 16:07:31;;;;;;;;;;;;;;;;;;5040162;28;4717;-65
2023/06/15 16:09:56;;;;;;;;;;;;;;;;;;5037799;28;4501;-65
2023/06/15 16:12:22;;;;;;;;;;;;;;;;;;5040319;28;4633;-64
2023/06/15 16:14:47;;;;;;;;;;;;;;;;;;5037937;28;1346;-65
2023/06/15 16:17:12;;;;;;;;;;;;;;;;;;5042499;28;4467;-64
2023/06/15 16:19:37;;;;;;;;;;;;;;;;;;5043831;28;4677;-66
2023/06/15 16:22:03;;;;;;;;;;;;;;;;;;5043764;28;4668;-64
2023/06/15 16:24:28;;;;;;;;;;;;;;;;;;5043917;28;4793;-64
2023/06/15 16:26:53;;;;;;;;;;;;;;;;;;5043066;28;4603;-63
2023/06/15 16:29:18;;;;;;;;;;;;;;;;;;5048079;28;2963;-64
2023/06/15 16:31:44;;;;;;;;;;;;;;;;;;5048033;28;4599;-65
2023/06/15 16:34:09;;;;;;;;;;;;;;;;;;5035831;28;4460;-65
2023/06/15 16:36:35;;;;;;;;;;;;;;;;;;5038549;28;4451;-64
2023/06/15 16:39:00;;;;;;;;;;;;;;;;;;5038322;28;4955;-71
2023/06/15 16:41:25;;;;;;;;;;;;;;;;;;5047565;28;3407;-71
2023/06/15 16:43:51;;;;;;;;;;;;;;;;;;5030739;28;4470;-64
2023/06/15 16:46:16;;;;;;;;;;;;;;;;;;5038778;28;4749;-66
2023/06/15 16:48:41;;;;;;;;;;;;;;;;;;5035654;28;4716;-67
2023/06/15 16:51:06;;;;;;;;;;;;;;;;;;5041401;28;5089;-71
2023/06/15 16:53:31;;;;;;;;;;;;;;;;;;5042510;28;3291;-67
2023/06/15 16:55:57;;;;;;;;;;;;;;;;;;5035189;28;5081;-67
2023/06/15 16:58:22;;;;;;;;;;;;;;;;;;5039099;28;4754;-68